Craiova, Romania
Current Conditions -  °F | °C
As of 7:00 AM on Thursday 18 Dec 2014 (Local Time) from LRCV Reporting Station
Moderate Fog Moderate Fog  
Wind Chill: 32°   Ceiling: 100
Heat Index: 32°   Visibility: 0.03mi
Dew Point: 32°   Wind: 2mph
Humidity: 100%   Direction: 230°SW
Pressure: 29.91"   Gusts: NA
Location:  44.33°N, 23.82°E
Report Text: LRCV 180400Z 23002KT 0050 R09/0225N FG VV001 00/M00 Q1013
Loading
Personal Weather Stations






























Interactive Weather Map New forecast layout! Learn more

10-Day Weather Forecast

Advertisements
Track Severe Weather on mobile